Time;durP1;ratioP1;P1;durP2;ratioP2;P2;SDS_P1;SDS_P2;PMS_P1;PMS_P2;Temp;Humidity;BMP_temperature;BMP_pressure;BME280_temperature;BME280_humidity;BME280_pressure;Samples;Min_cycle;Max_cycle;Signal;HPM_P1;HPM_P2
2022/06/24 00:00:52;;;;;;;4.70;3.40;;;;;;;19.66;60.94;99950.97;117337;1184;24162;-53
2022/06/24 00:03:19;;;;;;;7.00;4.40;;;;;;;19.67;61.12;99953.25;117122;1187;22911;-52
2022/06/24 00:05:46;;;;;;;6.10;4.20;;;;;;;19.66;61.01;99956.14;117329;1185;23516;-54
2022/06/24 00:08:13;;;;;;;4.50;3.90;;;;;;;19.67;61.08;99958.04;117434;1186;21851;-53
2022/06/24 00:10:40;;;;;;;6.60;4.50;;;;;;;19.69;61.15;99956.17;117308;1182;23999;-55
2022/06/24 00:13:07;;;;;;;5.60;4.10;;;;;;;19.71;61.14;99958.20;117277;1185;22084;-53
2022/06/24 00:15:35;;;;;;;6.00;4.10;;;;;;;19.72;61.34;99961.33;117334;1186;21839;-54
2022/06/24 00:18:13;;;;;;;7.10;4.60;;;;;;;19.74;61.19;99959.05;117359;1186;21849;-53
2022/06/24 00:20:44;;;;;;;4.50;3.90;;;;;;;19.78;61.25;99963.87;117419;1182;21859;-53
2022/06/24 00:23:13;;;;;;;4.70;3.90;;;;;;;19.80;61.06;99958.20;117322;1182;22066;-53
2022/06/24 00:25:40;;;;;;;6.20;3.70;;;;;;;19.83;61.30;99952.49;117396;1184;22985;-53
2022/06/24 00:28:09;;;;;;;6.30;4.20;;;;;;;19.84;61.33;99952.08;117302;1185;22672;-55
2022/06/24 00:30:49;;;;;;;5.10;4.40;;;;;;;19.85;61.68;99951.71;117348;1185;23436;-54
2022/06/24 00:33:18;;;;;;;5.80;3.70;;;;;;;19.89;61.30;99952.55;117422;1182;23858;-53
2022/06/24 00:35:47;;;;;;;7.10;4.30;;;;;;;19.90;61.39;99956.39;117337;1186;22998;-54
2022/06/24 00:38:21;;;;;;;6.30;3.80;;;;;;;19.92;61.10;99949.20;117443;1185;21935;-55
2022/06/24 00:41:02;;;;;;;7.60;4.50;;;;;;;19.93;61.30;99948.61;117403;1181;23005;-53
2022/06/24 00:43:33;;;;;;;4.50;3.60;;;;;;;19.93;61.50;99946.27;117392;1186;22938;-53
2022/06/24 00:46:06;;;;;;;8.80;4.10;;;;;;;19.95;61.13;99946.33;117291;1185;23545;-54
2022/06/24 00:48:35;;;;;;;4.90;3.70;;;;;;;19.98;60.74;99948.69;117332;1185;24140;-54
2022/06/24 00:51:03;;;;;;;6.30;4.10;;;;;;;20.00;60.86;99949.08;117375;1182;23566;-55
2022/06/24 00:53:39;;;;;;;5.10;3.60;;;;;;;20.01;60.96;99947.23;117434;1182;21843;-55
2022/06/24 00:56:06;;;;;;;6.00;3.90;;;;;;;20.01;61.28;99945.63;117290;1186;21836;-53
2022/06/24 00:58:33;;;;;;;4.90;3.80;;;;;;;20.00;61.14;99948.54;117388;1186;21828;-54
2022/06/24 01:01:00;;;;;;;7.70;3.80;;;;;;;19.99;61.43;99955.03;117313;1183;23569;-52
2022/06/24 01:03:39;;;;;;;9.80;4.10;;;;;;;19.99;61.24;99956.61;117307;1182;21883;-54
2022/06/24 01:06:07;;;;;;;4.50;3.50;;;;;;;20.02;60.91;99954.30;117374;1186;21839;-55
2022/06/24 01:08:35;;;;;;;6.90;3.60;;;;;;;20.03;61.21;99953.50;117429;1186;21859;-55
2022/06/24 01:11:05;;;;;;;7.50;3.50;;;;;;;20.04;61.06;99958.13;117377;1185;22085;-53
2022/06/24 01:13:32;;;;;;;4.00;3.20;;;;;;;20.03;61.08;99953.54;117312;1189;22958;-54
2022/06/24 01:15:59;;;;;;;6.40;3.80;;;;;;;20.03;61.18;99953.00;117326;1183;22915;-55
2022/06/24 01:18:26;;;;;;;5.10;3.50;;;;;;;20.03;61.18;99950.52;117328;1183;21843;-53
2022/06/24 01:20:53;;;;;;;5.80;3.80;;;;;;;20.03;61.24;99945.55;117349;1185;23618;-53
2022/06/24 01:23:24;;;;;;;4.70;3.50;;;;;;;20.01;61.19;99948.27;117281;1185;21912;-53
2022/06/24 01:25:51;;;;;;;4.90;4.10;;;;;;;20.01;61.22;99947.21;117344;1184;22988;-55
2022/06/24 01:28:18;;;;;;;5.20;3.60;;;;;;;20.04;60.82;99944.95;117315;1182;22899;-54
2022/06/24 01:30:45;;;;;;;7.30;3.50;;;;;;;20.04;60.94;99946.35;117358;1182;23551;-54
2022/06/24 01:33:12;;;;;;;7.00;3.40;;;;;;;20.04;60.84;99943.27;117304;1185;23435;-53
2022/06/24 01:35:39;;;;;;;6.10;3.70;;;;;;;20.04;60.77;99942.05;117459;1186;22985;-55
2022/06/24 01:38:06;;;;;;;7.70;3.10;;;;;;;20.04;60.69;99943.67;117332;1186;24144;-55
2022/06/24 01:40:33;;;;;;;5.50;3.80;;;;;;;20.04;60.79;99944.03;117409;1185;22915;-53
2022/06/24 01:43:01;;;;;;;5.90;3.50;;;;;;;20.04;60.71;99943.33;117370;1185;23445;-54
2022/06/24 01:45:28;;;;;;;6.70;3.50;;;;;;;20.03;60.69;99940.16;117486;1186;22984;-53
2022/06/24 01:47:55;;;;;;;6.60;3.60;;;;;;;20.01;60.77;99942.06;117319;1186;24270;-55
2022/06/24 01:50:22;;;;;;;8.80;3.60;;;;;;;19.99;60.51;99939.70;117339;1186;22908;-55
2022/06/24 01:52:50;;;;;;;4.60;3.50;;;;;;;19.96;60.47;99942.20;117356;1184;22960;-55
2022/06/24 01:55:17;;;;;;;5.00;3.00;;;;;;;19.93;60.56;99936.45;117426;1185;21932;-53
2022/06/24 01:57:44;;;;;;;6.00;3.50;;;;;;;19.90;60.44;99937.86;117424;1185;21906;-55
2022/06/24 02:00:12;;;;;;;6.90;3.20;;;;;;;19.89;60.54;99942.54;117439;1183;23538;-55
2022/06/24 02:02:39;;;;;;;16.90;3.80;;;;;;;19.89;60.39;99944.69;117457;1186;22986;-54
2022/06/24 02:05:10;;;;;;;8.20;3.80;;;;;;;19.89;60.54;99945.75;117287;1185;22916;-54
2022/06/24 02:07:37;;;;;;;5.40;3.50;;;;;;;19.90;60.41;99952.13;117338;1186;22186;-54
2022/06/24 02:15:37;;;;;;;6.40;3.50;;;;;;;19.88;60.52;99955.45;117256;1185;23544;-55
2022/06/24 02:18:04;;;;;;;5.20;3.30;;;;;;;19.95;60.47;99957.04;117346;1184;22948;-54
2022/06/24 02:20:31;;;;;;;4.60;3.30;;;;;;;19.96;60.30;99962.48;117459;1183;21949;-53
2022/06/24 02:22:58;;;;;;;6.40;3.60;;;;;;;19.97;60.23;99963.30;117429;1186;24157;-53
2022/06/24 02:25:25;;;;;;;4.60;3.50;;;;;;;19.90;60.30;99966.75;117359;1186;23579;-54
2022/06/24 02:27:52;;;;;;;6.10;3.50;;;;;;;19.95;60.27;99969.11;117387;1186;22640;-54
2022/06/24 02:30:19;;;;;;;6.10;3.70;;;;;;;19.98;60.16;99969.84;117417;1183;23560;-55
2022/06/24 02:32:47;;;;;;;4.20;3.30;;;;;;;19.98;60.16;99965.39;117479;1185;22705;-54
2022/06/24 02:35:14;;;;;;;4.60;3.10;;;;;;;19.98;60.08;99967.16;117446;1183;23602;-54
2022/06/24 02:37:41;;;;;;;4.90;3.50;;;;;;;19.98;60.25;99968.79;117394;1185;23432;-52
2022/06/24 02:42:56;;;;;;;6.10;3.30;;;;;;;19.86;60.50;99967.30;117381;1182;23547;-55
2022/06/24 02:45:23;;;;;;;6.00;3.50;;;;;;;19.87;60.39;99967.80;117440;1185;23582;-55
2022/06/24 02:47:51;;;;;;;5.60;3.70;;;;;;;19.90;60.29;99969.59;117333;1183;22268;-55
2022/06/24 02:50:18;;;;;;;4.40;3.10;;;;;;;19.90;60.16;99969.05;117410;1185;24200;-54
2022/06/24 02:52:45;;;;;;;4.20;3.30;;;;;;;19.91;60.10;99967.92;117369;1185;22915;-56
2022/06/24 02:55:12;;;;;;;5.40;3.60;;;;;;;19.95;60.03;99965.92;117343;1183;24213;-56
2022/06/24 02:57:39;;;;;;;7.00;3.50;;;;;;;19.97;60.13;99967.56;117378;1186;21849;-56
2022/06/24 03:00:08;;;;;;;8.10;4.00;;;;;;;19.99;60.06;99967.81;117382;1185;22931;-55
2022/06/24 03:02:35;;;;;;;5.40;3.40;;;;;;;20.01;60.05;99966.50;117432;1185;22636;-56
2022/06/24 03:05:02;;;;;;;8.10;3.50;;;;;;;20.02;60.07;99973.02;117300;1186;22634;-55
2022/06/24 03:07:29;;;;;;;6.80;3.10;;;;;;;20.04;59.96;99970.41;117313;1186;22812;-54
2022/06/24 03:09:56;;;;;;;5.00;3.40;;;;;;;20.07;59.85;99968.82;117352;1186;21866;-56
2022/06/24 03:12:24;;;;;;;4.50;3.20;;;;;;;20.10;59.93;99966.64;117386;1182;21843;-56
2022/06/24 03:14:50;;;;;;;10.80;4.00;;;;;;;20.14;59.73;99970.71;117411;1185;23540;-54
2022/06/24 03:17:17;;;;;;;9.00;3.60;;;;;;;20.18;59.90;99970.27;117453;1185;22825;-57
2022/06/24 03:19:45;;;;;;;19.10;3.70;;;;;;;20.23;59.87;99968.25;117379;1185;23696;-54
2022/06/24 03:22:12;;;;;;;8.50;3.00;;;;;;;20.25;59.76;99968.83;117419;1185;22698;-56
2022/06/24 03:24:40;;;;;;;4.40;3.20;;;;;;;20.31;59.76;99968.64;117388;1186;23433;-55
2022/06/24 03:27:07;;;;;;;6.90;3.30;;;;;;;20.33;59.64;99968.01;117406;1176;23746;-56
2022/06/24 03:29:34;;;;;;;5.20;3.10;;;;;;;20.32;59.56;99969.80;117434;1186;21891;-54
2022/06/24 03:32:01;;;;;;;4.20;3.10;;;;;;;20.35;59.61;99970.33;117367;1182;23573;-55
2022/06/24 03:34:28;;;;;;;5.20;3.20;;;;;;;20.40;59.61;99969.73;117375;1186;23864;-56
2022/06/24 03:36:55;;;;;;;3.50;2.60;;;;;;;20.44;59.62;99966.77;117442;1183;24253;-55
2022/06/24 03:39:22;;;;;;;3.80;2.60;;;;;;;20.48;59.40;99968.17;117366;1186;23003;-54
2022/06/24 03:41:49;;;;;;;6.70;3.20;;;;;;;20.50;59.25;99966.43;117415;1183;24290;-55
2022/06/24 03:44:16;;;;;;;4.10;3.00;;;;;;;20.54;59.20;99967.10;117387;1183;23524;-57
2022/06/24 03:46:43;;;;;;;7.30;3.60;;;;;;;20.60;59.04;99964.95;117387;1180;22924;-55
2022/06/24 03:49:10;;;;;;;5.50;3.20;;;;;;;20.63;59.01;99966.91;117321;1183;24181;-55
2022/06/24 03:51:37;;;;;;;5.00;3.40;;;;;;;20.66;59.02;99967.26;117358;1186;21881;-53
2022/06/24 03:54:04;;;;;;;7.00;2.80;;;;;;;20.69;58.98;99965.69;117255;1183;24146;-54
2022/06/24 03:56:31;;;;;;;6.40;3.20;;;;;;;20.73;58.99;99968.47;117390;1186;22913;-53
2022/06/24 03:58:58;;;;;;;6.00;3.00;;;;;;;20.78;58.92;99969.91;117394;1183;22291;-55
2022/06/24 04:01:25;;;;;;;5.90;3.00;;;;;;;20.85;58.86;99972.55;117459;1182;22985;-55
2022/06/24 04:03:52;;;;;;;4.20;2.80;;;;;;;20.91;58.76;99975.90;117440;1183;22886;-53
2022/06/24 04:06:20;;;;;;;3.50;2.90;;;;;;;20.98;58.66;99974.45;117344;1185;21840;-54
2022/06/24 04:08:47;;;;;;;5.80;2.80;;;;;;;21.03;58.64;99979.29;117356;1183;23435;-54
2022/06/24 04:11:16;;;;;;;7.50;2.90;;;;;;;21.07;58.47;99978.65;117351;1186;23579;-54
2022/06/24 04:13:43;;;;;;;7.20;2.90;;;;;;;21.12;58.48;99977.51;117443;1186;22950;-53
2022/06/24 04:16:10;;;;;;;5.20;2.80;;;;;;;21.17;58.33;99978.45;117406;1185;21852;-55
2022/06/24 04:18:38;;;;;;;4.00;2.70;;;;;;;21.21;58.31;99979.05;117428;1185;21852;-54
2022/06/24 04:21:12;;;;;;;5.40;3.00;;;;;;;21.24;58.17;99983.47;117401;1184;23550;-54
2022/06/24 04:23:40;;;;;;;4.20;2.60;;;;;;;21.28;58.17;99984.52;117439;1179;22174;-54
2022/06/24 04:26:07;;;;;;;6.20;3.60;;;;;;;21.31;58.01;99982.35;117422;1183;23807;-55
2022/06/24 04:28:35;;;;;;;4.00;2.40;;;;;;;21.36;58.04;99985.09;117444;1186;22640;-54
2022/06/24 04:31:02;;;;;;;11.20;3.00;;;;;;;21.40;57.97;99985.16;117389;1186;21993;-53
2022/06/24 04:33:29;;;;;;;5.90;2.60;;;;;;;21.44;57.81;99982.09;117266;1186;22869;-54
2022/06/24 04:35:56;;;;;;;4.30;2.50;;;;;;;21.45;57.80;99982.36;117454;1187;21836;-54
2022/06/24 04:38:24;;;;;;;4.00;2.60;;;;;;;21.47;57.78;99986.71;117383;1183;24145;-54
2022/06/24 04:40:51;;;;;;;2.80;2.30;;;;;;;21.48;57.70;99983.23;117381;1185;23579;-55
2022/06/24 04:43:18;;;;;;;5.70;2.60;;;;;;;21.46;57.40;99981.56;117457;1183;23576;-55
2022/06/24 04:45:45;;;;;;;5.20;2.70;;;;;;;21.45;57.43;99985.24;117454;1185;22635;-55
2022/06/24 04:48:16;;;;;;;6.40;2.80;;;;;;;21.43;57.48;99988.91;117443;1186;22904;-55
2022/06/24 04:50:43;;;;;;;;;;;;;;;21.43;57.45;99987.14;117421;1186;23544;-54
2022/06/24 04:53:11;;;;;;;4.90;2.70;;;;;;;21.46;57.45;99989.81;117394;1186;23513;-54
2022/06/24 04:55:38;;;;;;;6.20;2.60;;;;;;;21.51;57.62;99994.48;117439;1185;23435;-56
2022/06/24 04:58:05;;;;;;;8.10;2.60;;;;;;;21.58;57.65;99996.02;117439;1185;21858;-55
2022/06/24 05:00:33;;;;;;;2.90;2.50;;;;;;;21.66;57.46;99997.11;117469;1182;23560;-55
2022/06/24 05:03:00;;;;;;;5.20;2.60;;;;;;;21.73;57.26;99998.86;118497;1186;22635;-54
2022/06/24 05:05:28;;;;;;;5.40;2.70;;;;;;;21.77;57.07;99997.52;117476;1186;21887;-54
2022/06/24 05:07:54;;;;;;;4.50;2.50;;;;;;;21.84;57.33;100003.29;117407;1182;23592;-55
2022/06/24 05:10:21;;;;;;;3.90;2.60;;;;;;;21.99;56.93;100006.24;117368;1186;23276;-54
2022/06/24 05:12:49;;;;;;;4.50;3.20;;;;;;;22.11;56.77;100005.27;117327;1183;22167;-54
2022/06/24 05:15:16;;;;;;;6.40;5.00;;;;;;;22.18;56.51;100005.35;117483;1186;23538;-55
2022/06/24 05:17:43;;;;;;;5.00;4.00;;;;;;;22.12;56.45;100009.13;117438;1185;22633;-54
2022/06/24 05:20:11;;;;;;;6.20;2.80;;;;;;;22.09;56.59;100011.46;117334;1186;21980;-54
2022/06/24 05:22:40;;;;;;;5.60;2.50;;;;;;;22.06;56.52;100012.39;117273;1185;22707;-54
2022/06/24 05:25:08;;;;;;;4.70;2.70;;;;;;;22.04;56.57;100013.60;117450;1186;23560;-54
2022/06/24 05:27:36;;;;;;;4.70;2.60;;;;;;;22.04;56.46;100013.98;117427;1187;21853;-54
2022/06/24 05:30:03;;;;;;;5.90;2.90;;;;;;;22.05;56.42;100013.73;117497;1185;22608;-54
2022/06/24 05:32:30;;;;;;;9.30;3.30;;;;;;;22.10;56.68;100008.20;117440;1182;23566;-54
2022/06/24 05:34:57;;;;;;;7.60;3.20;;;;;;;22.20;56.62;100007.73;117469;1186;21860;-54
2022/06/24 05:37:24;;;;;;;3.90;2.20;;;;;;;22.34;56.60;100002.35;117376;1183;23563;-55
2022/06/24 05:39:52;;;;;;;4.80;2.80;;;;;;;22.50;56.36;99996.96;117407;1185;23672;-54
2022/06/24 05:42:19;;;;;;;8.90;2.90;;;;;;;22.64;56.23;100000.46;117401;1185;23462;-55
2022/06/24 05:44:47;;;;;;;6.70;2.80;;;;;;;22.80;56.18;100007.08;117432;1186;22914;-54
2022/06/24 05:47:14;;;;;;;8.00;2.90;;;;;;;22.94;56.10;100009.85;117387;1185;22831;-54
2022/06/24 05:49:41;;;;;;;39.00;19.00;;;;;;;23.03;55.58;100012.44;117232;1186;24165;-54
2022/06/24 05:52:08;;;;;;;22.90;13.90;;;;;;;23.03;55.26;100012.09;117343;1184;23996;-54
2022/06/24 05:57:21;;;;;;;8.50;4.10;;;;;;;22.90;55.29;100013.88;117387;1183;23541;-54
2022/06/24 05:59:48;;;;;;;8.20;3.50;;;;;;;22.87;55.41;100013.38;117535;1185;23001;-54
2022/06/24 06:02:18;;;;;;;3.80;2.80;;;;;;;22.85;55.52;100011.73;117440;1183;22818;-55
2022/06/24 06:04:46;;;;;;;5.60;2.60;;;;;;;22.86;55.41;100020.06;117402;1185;23433;-56
2022/06/24 06:07:13;;;;;;;5.00;2.90;;;;;;;22.87;55.46;100019.66;117361;1181;22966;-55
2022/06/24 06:09:41;;;;;;;4.20;2.90;;;;;;;22.87;55.50;100018.70;117399;1186;24213;-55
2022/06/24 06:12:08;;;;;;;11.00;3.40;;;;;;;22.87;55.46;100018.23;117475;1186;23582;-55
2022/06/24 06:14:35;;;;;;;4.50;2.90;;;;;;;22.85;55.48;100018.34;117397;1182;23432;-55
2022/06/24 06:17:03;;;;;;;3.80;2.90;;;;;;;22.87;55.51;100012.33;117491;1182;22287;-54
2022/06/24 06:19:33;;;;;;;8.20;2.70;;;;;;;22.90;55.53;100010.52;117401;1185;22921;-55
2022/06/24 06:22:02;;;;;;;7.10;3.00;;;;;;;22.97;55.51;100009.45;117372;1182;22802;-55
2022/06/24 06:24:30;;;;;;;6.20;2.80;;;;;;;23.09;55.66;100008.46;117495;1186;23538;-55
2022/06/24 06:26:58;;;;;;;4.60;2.90;;;;;;;23.23;55.42;100012.02;117320;1185;24221;-55
2022/06/24 06:29:25;;;;;;;8.70;2.90;;;;;;;23.35;55.31;100009.93;117448;1186;21849;-55
2022/06/24 06:31:52;;;;;;;9.10;3.80;;;;;;;23.41;55.00;100009.61;117433;1184;22771;-55
2022/06/24 06:34:20;;;;;;;7.10;4.10;;;;;;;23.48;55.01;100011.63;117410;1186;22053;-55
2022/06/24 06:36:47;;;;;;;10.60;5.70;;;;;;;23.55;54.93;100013.30;117411;1185;22632;-54
2022/06/24 06:39:15;;;;;;;22.10;8.80;;;;;;;23.56;54.68;100014.27;117374;1182;21944;-55
2022/06/24 06:41:46;;;;;;;9.30;5.90;;;;;;;23.56;54.74;100014.45;117367;1184;22810;-55
2022/06/24 06:44:15;;;;;;;6.60;4.50;;;;;;;23.62;54.78;100013.90;117419;1186;24157;-54
2022/06/24 06:46:42;;;;;;;8.50;3.90;;;;;;;23.67;54.90;100016.90;117471;1182;22903;-55
2022/06/24 06:49:09;;;;;;;7.20;4.30;;;;;;;23.71;54.95;100018.94;117409;1186;21853;-55
2022/06/24 06:51:37;;;;;;;7.20;4.20;;;;;;;23.77;54.82;100024.28;117336;1186;23675;-54
2022/06/24 06:54:05;;;;;;;6.40;3.70;;;;;;;23.84;54.72;100024.46;117414;1184;21957;-55
2022/06/24 06:56:32;;;;;;;8.90;4.00;;;;;;;23.88;54.63;100026.13;117264;1185;22620;-55
2022/06/24 06:59:01;;;;;;;6.60;3.40;;;;;;;23.93;54.78;100024.88;117333;1185;22918;-56
2022/06/24 07:01:28;;;;;;;6.50;3.20;;;;;;;23.98;54.58;100022.73;117369;1186;21830;-55
2022/06/24 07:03:57;;;;;;;6.60;3.00;;;;;;;24.02;54.33;100025.84;117365;1182;22925;-55
2022/06/24 07:06:24;;;;;;;11.20;4.00;;;;;;;24.03;54.13;100028.96;117363;1185;21853;-55
2022/06/24 07:08:51;;;;;;;6.70;3.30;;;;;;;24.03;54.24;100031.70;117433;1182;23432;-55
2022/06/24 07:11:19;;;;;;;6.90;3.20;;;;;;;23.99;53.94;100028.74;117438;1183;22960;-56
2022/06/24 07:13:46;;;;;;;5.40;3.00;;;;;;;23.90;53.42;100030.77;117387;1182;23560;-55
2022/06/24 07:16:13;;;;;;;8.10;3.00;;;;;;;23.83;53.53;100037.41;117340;1185;21849;-55
2022/06/24 07:18:41;;;;;;;4.90;3.10;;;;;;;23.76;53.81;100033.98;117356;1184;22902;-55
2022/06/24 07:21:12;;;;;;;4.20;2.70;;;;;;;23.70;53.93;100029.56;117375;1185;22717;-56
2022/06/24 07:23:39;;;;;;;;;;;;;;;23.62;53.45;100032.87;117363;1183;23587;-55
2022/06/24 07:26:06;;;;;;;6.00;2.70;;;;;;;23.57;53.60;100034.64;117362;1182;22918;-56
2022/06/24 07:28:34;;;;;;;5.20;2.60;;;;;;;23.65;53.84;100037.31;117380;1186;21857;-55
2022/06/24 07:31:00;;;;;;;6.90;2.80;;;;;;;23.74;53.59;100035.03;117408;1182;22411;-56
2022/06/24 07:33:28;;;;;;;5.70;2.70;;;;;;;23.84;53.38;100035.36;117446;1185;21850;-56
2022/06/24 07:35:55;;;;;;;5.50;2.90;;;;;;;23.90;53.34;100034.90;117423;1182;23556;-56
2022/06/24 07:38:23;;;;;;;3.80;2.50;;;;;;;24.00;53.36;100030.64;117445;1182;21890;-53
2022/06/24 07:40:51;;;;;;;4.10;2.90;;;;;;;24.15;53.36;100029.52;117321;1182;22825;-54
2022/06/24 07:43:18;;;;;;;3.60;2.60;;;;;;;24.34;53.34;100027.08;117427;1185;22802;-54
2022/06/24 07:45:45;;;;;;;7.30;3.40;;;;;;;24.46;52.91;100022.92;117408;1182;21851;-54
2022/06/24 07:48:13;;;;;;;5.30;3.00;;;;;;;24.53;52.71;100023.45;117366;1181;21836;-54
2022/06/24 07:50:40;;;;;;;4.80;3.30;;;;;;;24.58;52.34;100024.85;117379;1186;21961;-55
2022/06/24 07:53:07;;;;;;;4.10;3.00;;;;;;;24.65;52.57;100029.91;117333;1186;21839;-54
2022/06/24 07:58:22;;;;;;;8.50;3.40;;;;;;;24.73;52.83;100032.77;117385;1186;24138;-56
2022/06/24 08:00:50;;;;;;;4.80;3.20;;;;;;;24.73;52.86;100027.02;117250;1185;22905;-54
2022/06/24 08:03:17;;;;;;;5.30;3.20;;;;;;;24.71;53.21;100026.77;117250;1186;22943;-55
2022/06/24 08:05:45;;;;;;;4.50;3.50;;;;;;;24.87;52.96;100027.02;117468;1185;21850;-55
2022/06/24 08:08:18;;;;;;;6.20;3.50;;;;;;;25.02;52.82;100022.75;117295;1185;21854;-56
2022/06/24 08:10:46;;;;;;;6.60;3.90;;;;;;;25.08;52.98;100024.98;117382;1184;22740;-54
2022/06/24 08:13:13;;;;;;;5.20;3.50;;;;;;;25.14;52.71;100022.55;117358;1183;21849;-56
2022/06/24 08:15:41;;;;;;;7.40;3.40;;;;;;;25.17;52.08;100019.46;117380;1182;21899;-56
2022/06/24 08:18:09;;;;;;;6.50;3.40;;;;;;;25.16;51.91;100026.52;117377;1182;22921;-54
2022/06/24 08:20:36;;;;;;;6.10;3.40;;;;;;;25.15;52.04;100027.89;117396;1185;21874;-56
2022/06/24 08:23:03;;;;;;;5.40;3.20;;;;;;;25.20;52.65;100024.06;117401;1182;24154;-56
2022/06/24 08:25:30;;;;;;;8.30;3.20;;;;;;;25.24;52.02;100025.70;117392;1179;22902;-56
2022/06/24 08:27:58;;;;;;;4.80;3.30;;;;;;;25.23;51.81;100027.41;117397;1186;22642;-55
2022/06/24 08:30:25;;;;;;;6.00;3.30;;;;;;;25.23;52.28;100026.68;117424;1186;21849;-55
2022/06/24 08:32:52;;;;;;;6.60;3.10;;;;;;;25.22;52.03;100023.36;117492;1183;22942;-55
2022/06/24 08:35:20;;;;;;;4.60;3.40;;;;;;;25.15;52.19;100024.07;117434;1183;22932;-55
2022/06/24 08:37:57;;;;;;;6.70;3.20;;;;;;;25.15;52.21;100021.40;117330;1186;23448;-54
2022/06/24 08:40:25;;;;;;;7.10;3.20;;;;;;;25.18;52.47;100023.35;117300;1179;23563;-55
2022/06/24 08:42:53;;;;;;;4.90;3.30;;;;;;;25.24;52.50;100013.11;118000;1184;21852;-55
2022/06/24 08:45:20;;;;;;;5.40;3.20;;;;;;;25.37;52.24;100010.30;117503;1185;21856;-56
2022/06/24 08:47:48;;;;;;;8.70;2.80;;;;;;;25.61;52.61;100006.31;117739;1185;21852;-57
2022/06/24 08:50:16;;;;;;;4.50;3.30;;;;;;;26.02;52.83;100006.54;117457;1184;21846;-56
2022/06/24 08:52:52;;;;;;;7.50;3.10;;;;;;;26.59;51.76;100003.91;117580;1185;24637;-55
2022/06/24 08:55:24;;;;;;;6.60;3.10;;;;;;;27.01;51.54;100004.14;117367;1186;23618;-54
2022/06/24 08:57:50;;;;;;;5.40;3.10;;;;;;;27.26;51.32;100001.38;118151;1186;22978;-55
2022/06/24 09:00:18;;;;;;;6.50;3.60;;;;;;;27.42;50.39;99996.40;117175;1185;22942;-54
2022/06/24 09:02:47;;;;;;;8.60;4.20;;;;;;;27.60;50.90;99995.54;117483;1182;22985;-55
2022/06/24 09:05:15;;;;;;;8.60;3.20;;;;;;;27.82;50.85;99995.69;117395;1186;22449;-55
2022/06/24 09:07:43;;;;;;;5.50;3.20;;;;;;;28.06;49.65;99995.14;117277;1186;22988;-56
2022/06/24 09:10:12;;;;;;;5.30;3.30;;;;;;;28.19;48.62;99994.48;117423;1182;22620;-55
2022/06/24 09:12:44;;;;;;;4.00;3.00;;;;;;;28.20;48.95;99998.60;117534;1185;21868;-54
2022/06/24 09:15:13;;;;;;;7.50;3.30;;;;;;;28.00;48.12;99998.07;117388;1181;21854;-55
2022/06/24 09:17:40;;;;;;;3.60;2.80;;;;;;;27.78;49.36;99996.63;117353;1183;21854;-54
2022/06/24 09:20:09;;;;;;;6.20;3.30;;;;;;;27.62;48.95;99997.52;117396;1183;22912;-55
2022/06/24 09:23:14;;;;;;;3.80;2.80;;;;;;;27.41;49.37;99995.41;117334;1185;21970;-56
2022/06/24 09:25:47;;;;;;;8.30;2.90;;;;;;;27.21;49.53;99999.70;117396;1183;23472;-57
2022/06/24 09:28:24;;;;;;;4.70;3.00;;;;;;;27.18;49.42;100002.63;117423;1182;21992;-56
2022/06/24 09:31:08;;;;;;;5.50;2.80;;;;;;;27.10;48.86;99997.20;117434;1183;22830;-56
2022/06/24 09:33:40;;;;;;;5.90;3.50;;;;;;;27.00;48.82;99992.64;117392;1186;22950;-55
2022/06/24 09:36:11;;;;;;;5.40;3.00;;;;;;;26.96;49.46;99990.02;117439;1182;24198;-56
2022/06/24 09:39:02;;;;;;;5.20;3.20;;;;;;;26.98;49.36;99988.41;117439;1183;22986;-56
2022/06/24 09:41:29;;;;;;;6.70;3.70;;;;;;;26.97;49.42;99983.97;117526;1185;22645;-57
2022/06/24 09:43:57;;;;;;;6.20;4.10;;;;;;;26.94;49.12;99982.63;117424;1183;22927;-56
2022/06/24 09:46:25;;;;;;;6.40;3.60;;;;;;;26.96;48.89;99979.59;117379;1183;21843;-57
2022/06/24 09:49:01;;;;;;;6.10;3.30;;;;;;;26.98;49.10;99982.95;117366;1184;22860;-56
2022/06/24 09:51:28;;;;;;;7.20;3.60;;;;;;;26.95;48.88;99986.66;117358;1185;21850;-56
2022/06/24 09:53:56;;;;;;;5.60;3.70;;;;;;;26.99;49.21;99988.50;117400;1183;24168;-57
2022/06/24 09:56:23;;;;;;;6.50;3.60;;;;;;;27.01;49.00;99984.65;117295;1183;23683;-55
2022/06/24 10:01:38;;;;;;;4.70;3.80;;;;;;;27.13;49.13;99975.23;117319;1182;21957;-57
2022/06/24 10:04:09;;;;;;;5.10;3.40;;;;;;;27.20;49.12;99971.16;117336;1182;22929;-55
2022/06/24 10:06:37;;;;;;;8.10;3.70;;;;;;;27.24;49.20;99968.39;117413;1184;21864;-56
2022/06/24 10:09:06;;;;;;;4.40;3.70;;;;;;;27.27;49.09;99966.04;117392;1183;21839;-56
2022/06/24 10:11:37;;;;;;;5.20;3.60;;;;;;;27.27;48.87;99965.98;117383;1185;21854;-56
2022/06/24 10:14:06;;;;;;;7.00;3.60;;;;;;;27.30;49.25;99964.34;117393;1182;23002;-55
2022/06/24 10:16:34;;;;;;;6.40;3.80;;;;;;;27.38;49.21;99960.89;117381;1185;22338;-56
2022/06/24 10:19:02;;;;;;;7.10;3.80;;;;;;;27.56;49.55;99960.02;117192;1184;22529;-56
2022/06/24 10:21:29;;;;;;;4.30;3.10;;;;;;;27.85;49.07;99956.73;117417;1184;22985;-56
2022/06/24 10:23:57;;;;;;;4.90;4.00;;;;;;;28.14;47.80;99951.23;117306;1185;21849;-56
2022/06/24 10:26:31;;;;;;;7.20;4.40;;;;;;;28.29;47.26;99950.70;117395;1186;23563;-54
2022/06/24 10:29:04;;;;;;;4.20;3.40;;;;;;;28.35;47.99;99950.70;117405;1183;22963;-54
2022/06/24 10:31:44;;;;;;;4.40;3.70;;;;;;;28.41;46.88;99948.71;117216;1188;22644;-54
2022/06/24 10:34:21;;;;;;;4.90;3.50;;;;;;;28.45;46.43;99947.04;117315;1183;22906;-54
2022/06/24 10:36:52;;;;;;;5.60;3.30;;;;;;;28.46;46.32;99946.90;117306;1185;23544;-55
2022/06/24 10:39:22;;;;;;;4.30;2.90;;;;;;;28.59;47.22;99944.77;117359;1186;22656;-55
2022/06/24 10:41:58;;;;;;;6.40;3.80;;;;;;;28.85;46.76;99944.20;117263;1186;22935;-54
2022/06/24 10:44:36;;;;;;;4.80;3.40;;;;;;;29.06;46.41;99946.08;117199;1184;21931;-54
2022/06/24 10:47:04;;;;;;;5.00;3.70;;;;;;;29.28;46.84;99945.13;117289;1182;23016;-55
2022/06/24 10:49:54;;;;;;;3.90;3.30;;;;;;;29.49;46.21;99940.17;117294;1182;22925;-55
2022/06/24 10:52:50;;;;;;;5.80;3.50;;;;;;;29.65;45.82;99939.52;117328;1186;21863;-54
2022/06/24 10:55:21;;;;;;;6.60;3.10;;;;;;;29.87;45.87;99936.36;117263;1181;22918;-55
2022/06/24 10:57:57;;;;;;;5.90;3.20;;;;;;;30.23;46.58;99933.54;117486;1185;22870;-57
2022/06/24 11:00:48;;;;;;;5.30;3.30;;;;;;;30.54;45.56;99926.04;117333;1183;22619;-56
2022/06/24 11:03:22;;;;;;;4.70;3.40;;;;;;;30.74;45.12;99929.73;117215;1184;21849;-56
2022/06/24 11:05:51;;;;;;;3.90;2.80;;;;;;;30.94;43.94;99933.30;117341;1183;21855;-57
2022/06/24 11:08:20;;;;;;;5.40;3.30;;;;;;;31.16;43.98;99930.24;117344;1185;22917;-56
2022/06/24 11:10:49;;;;;;;6.90;3.40;;;;;;;31.37;42.79;99934.54;117320;1183;21850;-56
2022/06/24 11:13:21;;;;;;;19.60;4.40;;;;;;;31.60;43.19;99922.85;117328;1185;21861;-56
2022/06/24 11:15:52;;;;;;;18.30;4.40;;;;;;;31.69;41.46;99918.97;117399;1186;21843;-57
2022/06/24 11:18:22;;;;;;;11.30;4.80;;;;;;;31.77;41.00;99916.36;117361;1185;22976;-56
2022/06/24 11:20:54;;;;;;;67.20;9.80;;;;;;;31.92;42.55;99907.98;117339;1181;21878;-56
2022/06/24 11:23:23;;;;;;;15.30;3.80;;;;;;;32.22;43.24;99902.60;117285;1184;21853;-56
2022/06/24 11:25:52;;;;;;;23.70;5.20;;;;;;;32.38;41.83;99889.47;117379;1186;23567;-57
2022/06/24 11:28:30;;;;;;;5.00;3.10;;;;;;;32.36;42.35;99888.58;117337;1182;22805;-55
2022/06/24 11:31:18;;;;;;;5.80;2.80;;;;;;;32.38;42.10;99889.91;117320;1182;21850;-56
2022/06/24 11:34:10;;;;;;;4.00;3.10;;;;;;;32.50;40.51;99876.86;117433;1184;23475;-56
2022/06/24 11:36:38;;;;;;;5.90;3.10;;;;;;;32.57;40.70;99868.95;117401;1186;21851;-56
2022/06/24 11:39:06;;;;;;;4.20;2.80;;;;;;;32.61;40.57;99859.34;117428;1185;22905;-56
2022/06/24 11:41:37;;;;;;;4.50;3.20;;;;;;;32.66;40.77;99856.16;117422;1186;21857;-56
2022/06/24 11:44:31;;;;;;;3.40;2.60;;;;;;;32.68;38.74;99867.21;117395;1185;23705;-56
2022/06/24 11:46:58;;;;;;;4.80;3.10;;;;;;;32.71;38.90;99876.08;117438;1186;22911;-57